Time,TemperatureF,DewpointF,PressureIn,WindDirection,WindDirectionDegrees,WindSpeedMPH,WindSpeedGustMPH,Humidity,HourlyPrecipIn,Conditions,Clouds,dailyrainin,SolarRadiationWatts/m^2,SoftwareType,DateUTC
2013-01-24 00:22:00,34.0,28.0,-100.00,SSE,155,2.0,5.0,77,0.00,,,0.00,0.000000,,2013-01-24 09:22:00,
2013-01-24 00:33:00,34.0,28.0,-100.00,SSE,155,2.0,5.0,77,0.00,,,0.00,0.000000,,2013-01-24 09:33:00,
2013-01-24 00:42:00,34.0,28.0,-100.00,SSE,155,2.0,5.0,77,0.00,,,0.00,0.000000,,2013-01-24 09:42:00,
2013-01-24 00:52:00,34.0,28.0,-100.00,SSE,155,2.0,5.0,77,0.00,,,0.00,0.000000,,2013-01-24 09:52:00,
2013-01-24 01:22:00,34.0,28.0,-100.00,South,172,2.0,7.0,77,0.00,,,0.00,0.000000,,2013-01-24 10:22:00,
2013-01-24 01:33:00,34.0,28.0,-100.00,South,172,2.0,7.0,77,0.00,,,0.00,0.000000,,2013-01-24 10:33:00,
2013-01-24 01:42:00,34.0,28.0,-100.00,South,172,2.0,7.0,77,0.00,,,0.00,0.000000,,2013-01-24 10:42:00,
2013-01-24 01:52:00,34.0,28.0,-100.00,South,172,2.0,7.0,77,0.00,,,0.00,0.000000,,2013-01-24 10:52:00,
2013-01-24 02:22:00,34.0,28.0,-100.00,East,82,5.0,7.0,79,0.00,,,0.00,0.000000,,2013-01-24 11:22:00,
2013-01-24 02:33:00,34.0,28.0,-100.00,East,82,5.0,7.0,79,0.00,,,0.00,0.000000,,2013-01-24 11:33:00,
2013-01-24 02:42:00,34.0,28.0,-100.00,East,82,5.0,7.0,79,0.00,,,0.00,0.000000,,2013-01-24 11:42:00,
2013-01-24 02:52:00,34.0,28.0,-100.00,East,82,5.0,7.0,79,0.00,,,0.00,0.000000,,2013-01-24 11:52:00,
2013-01-24 03:22:00,35.0,27.0,-100.00,NW,325,3.0,6.0,73,0.00,,,0.00,0.000000,,2013-01-24 12:22:00,
2013-01-24 03:33:00,35.0,27.0,-100.00,NW,325,3.0,6.0,73,0.00,,,0.00,0.000000,,2013-01-24 12:33:00,
2013-01-24 03:42:00,35.0,27.0,-100.00,NW,325,3.0,6.0,73,0.00,,,0.00,0.000000,,2013-01-24 12:42:00,
2013-01-24 03:52:00,35.0,27.0,-100.00,NW,325,3.0,6.0,73,0.00,,,0.00,0.000000,,2013-01-24 12:52:00,
2013-01-24 04:22:00,34.0,27.0,-100.00,NW,308,3.0,7.0,75,0.00,,,0.00,0.000000,,2013-01-24 13:22:00,
2013-01-24 04:33:00,34.0,27.0,-100.00,NW,308,3.0,7.0,75,0.00,,,0.00,0.000000,,2013-01-24 13:33:00,
2013-01-24 04:42:00,34.0,27.0,-100.00,NW,308,3.0,7.0,75,0.00,,,0.00,0.000000,,2013-01-24 13:42:00,
2013-01-24 04:52:00,34.0,27.0,-100.00,NW,308,3.0,7.0,75,0.00,,,0.00,0.000000,,2013-01-24 13:52:00,
2013-01-24 05:22:00,37.0,29.0,-100.00,East,101,6.0,11.0,74,0.00,,,0.00,0.000000,,2013-01-24 14:22:00,
2013-01-24 05:33:00,37.0,29.0,-100.00,East,101,6.0,11.0,74,0.00,,,0.00,0.000000,,2013-01-24 14:33:00,
2013-01-24 05:43:00,37.0,29.0,-100.00,East,101,6.0,11.0,74,0.00,,,0.00,0.000000,,2013-01-24 14:43:00,
2013-01-24 05:53:00,37.0,29.0,-100.00,East,101,6.0,11.0,74,0.00,,,0.00,0.000000,,2013-01-24 14:53:00,
2013-01-24 06:22:00,36.0,27.0,-100.00,South,177,5.0,11.0,69,0.00,,,0.00,0.000000,,2013-01-24 15:22:00,
2013-01-24 06:33:00,36.0,27.0,-100.00,South,177,5.0,11.0,69,0.00,,,0.00,0.000000,,2013-01-24 15:33:00,
2013-01-24 06:42:00,36.0,27.0,-100.00,South,177,5.0,11.0,69,0.00,,,0.00,0.000000,,2013-01-24 15:42:00,
2013-01-24 06:52:00,36.0,27.0,-100.00,South,177,5.0,11.0,69,0.00,,,0.00,0.000000,,2013-01-24 15:52:00,
2013-01-24 07:22:00,38.0,25.0,-100.00,SE,137,7.0,17.0,58,0.00,,,0.00,0.000000,,2013-01-24 16:22:00,
2013-01-24 07:33:00,38.0,25.0,-100.00,SE,137,7.0,17.0,58,0.00,,,0.00,0.000000,,2013-01-24 16:33:00,
2013-01-24 07:42:00,38.0,25.0,-100.00,SE,137,7.0,17.0,58,0.00,,,0.00,0.000000,,2013-01-24 16:42:00,
2013-01-24 08:32:00,38.0,23.0,-100.00,SSE,149,6.0,14.0,54,0.00,,,0.00,0.000000,,2013-01-24 17:32:00,
2013-01-24 08:42:00,38.0,23.0,-100.00,SSE,149,6.0,14.0,54,0.00,,,0.00,0.000000,,2013-01-24 17:42:00,
2013-01-24 08:52:00,38.0,23.0,-100.00,SSE,149,6.0,14.0,54,0.00,,,0.00,0.000000,,2013-01-24 17:52:00,
2013-01-24 09:22:00,37.0,24.0,-100.00,SSE,161,5.0,14.0,58,0.00,,,0.00,0.000000,,2013-01-24 18:22:00,
2013-01-24 09:32:00,37.0,24.0,-100.00,SSE,161,5.0,14.0,58,0.00,,,0.00,0.000000,,2013-01-24 18:32:00,
2013-01-24 09:42:00,37.0,24.0,-100.00,SSE,161,5.0,14.0,58,0.00,,,0.00,0.000000,,2013-01-24 18:42:00,
2013-01-24 09:52:00,37.0,24.0,-100.00,SSE,161,5.0,14.0,58,0.00,,,0.00,0.000000,,2013-01-24 18:52:00,
2013-01-24 10:22:00,37.0,24.0,-100.00,SSE,158,5.0,13.0,60,0.00,,,0.00,5.000000,,2013-01-24 19:22:00,
2013-01-24 10:32:00,37.0,24.0,-100.00,SSE,158,5.0,13.0,60,0.00,,,0.00,5.000000,,2013-01-24 19:32:00,
2013-01-24 10:42:00,37.0,24.0,-100.00,SSE,158,5.0,13.0,60,0.00,,,0.00,5.000000,,2013-01-24 19:42:00,
2013-01-24 10:51:00,37.0,24.0,-100.00,SSE,158,5.0,13.0,60,0.00,,,0.00,5.000000,,2013-01-24 19:51:00,
2013-01-24 11:22:00,37.0,22.0,-100.00,West,260,5.0,13.0,55,0.00,,,0.00,22.000000,,2013-01-24 20:22:00,
2013-01-24 11:32:00,37.0,22.0,-100.00,West,260,5.0,13.0,55,0.00,,,0.00,22.000000,,2013-01-24 20:32:00,
2013-01-24 11:42:00,37.0,22.0,-100.00,West,260,5.0,13.0,55,0.00,,,0.00,22.000000,,2013-01-24 20:42:00,
2013-01-24 11:52:00,37.0,22.0,-100.00,West,260,5.0,13.0,55,0.00,,,0.00,22.000000,,2013-01-24 20:52:00,
2013-01-24 12:22:00,38.0,22.0,-100.00,ESE,104,7.0,15.0,51,0.00,,,-99.99,59.000000,,2013-01-24 21:22:00,
2013-01-24 12:32:00,38.0,22.0,-100.00,ESE,104,7.0,15.0,51,0.00,,,-99.99,59.000000,,2013-01-24 21:32:00,
2013-01-24 12:42:00,38.0,22.0,-100.00,ESE,104,7.0,15.0,51,0.00,,,-99.99,59.000000,,2013-01-24 21:42:00,
2013-01-24 12:52:00,38.0,22.0,-100.00,ESE,104,7.0,15.0,51,0.00,,,-99.99,59.000000,,2013-01-24 21:52:00,
2013-01-24 13:22:00,37.0,20.0,-100.00,SSE,160,13.0,26.0,50,0.00,,,0.00,67.000000,,2013-01-24 22:22:00,
2013-01-24 13:32:00,37.0,20.0,-100.00,SSE,160,13.0,26.0,50,0.00,,,0.00,67.000000,,2013-01-24 22:32:00,
2013-01-24 13:42:00,37.0,20.0,-100.00,SSE,160,13.0,26.0,50,0.00,,,0.00,67.000000,,2013-01-24 22:42:00,
2013-01-24 13:52:00,37.0,20.0,-100.00,SSE,160,13.0,26.0,50,0.00,,,0.00,67.000000,,2013-01-24 22:52:00,
2013-01-24 14:22:00,39.0,21.0,-100.00,SSE,160,9.0,23.0,48,0.00,,,0.00,157.000000,,2013-01-24 23:22:00,
2013-01-24 14:32:00,39.0,21.0,-100.00,SSE,160,9.0,23.0,48,0.00,,,0.00,157.000000,,2013-01-24 23:32:00,
2013-01-24 14:42:00,39.0,21.0,-100.00,SSE,160,9.0,23.0,48,0.00,,,0.00,157.000000,,2013-01-24 23:42:00,
2013-01-24 14:52:00,39.0,21.0,-100.00,SSE,160,9.0,23.0,48,0.00,,,0.00,157.000000,,2013-01-24 23:52:00,
2013-01-24 15:22:00,39.0,21.0,-100.00,SE,146,9.0,19.0,49,0.00,,,0.00,141.000000,,2013-01-25 00:22:00,
2013-01-24 15:32:00,39.0,21.0,-100.00,SE,146,9.0,19.0,49,0.00,,,0.00,141.000000,,2013-01-25 00:32:00,
2013-01-24 15:41:00,39.0,21.0,-100.00,SE,146,9.0,19.0,49,0.00,,,0.00,141.000000,,2013-01-25 00:41:00,
2013-01-24 15:51:00,39.0,21.0,-100.00,SE,146,9.0,19.0,49,0.00,,,0.00,141.000000,,2013-01-25 00:51:00,
2013-01-24 16:21:00,38.0,19.0,-100.00,ESE,114,7.0,18.0,46,0.00,,,0.00,97.000000,,2013-01-25 01:21:00,
2013-01-24 16:32:00,38.0,19.0,-100.00,ESE,114,7.0,18.0,46,0.00,,,0.00,97.000000,,2013-01-25 01:32:00,
2013-01-24 16:42:00,38.0,19.0,-100.00,ESE,114,7.0,18.0,46,0.00,,,0.00,97.000000,,2013-01-25 01:42:00,
2013-01-24 16:51:00,38.0,19.0,-100.00,ESE,114,7.0,18.0,46,0.00,,,0.00,97.000000,,2013-01-25 01:51:00,
2013-01-24 17:22:00,35.0,20.0,-100.00,East,101,10.0,20.0,53,0.00,,,0.00,24.000000,,2013-01-25 02:22:00,
2013-01-24 17:32:00,35.0,20.0,-100.00,East,101,10.0,20.0,53,0.00,,,0.00,24.000000,,2013-01-25 02:32:00,
2013-01-24 17:42:00,35.0,20.0,-100.00,East,101,10.0,20.0,53,0.00,,,0.00,24.000000,,2013-01-25 02:42:00,
2013-01-24 17:52:00,35.0,20.0,-100.00,East,101,10.0,20.0,53,0.00,,,0.00,24.000000,,2013-01-25 02:52:00,
2013-01-24 18:22:00,35.0,21.0,-100.00,SE,125,7.0,20.0,56,0.00,,,0.00,0.000000,,2013-01-25 03:22:00,
2013-01-24 18:32:00,35.0,21.0,-100.00,SE,125,7.0,20.0,56,0.00,,,0.00,0.000000,,2013-01-25 03:32:00,
2013-01-24 18:41:00,35.0,21.0,-100.00,SE,125,7.0,20.0,56,0.00,,,0.00,0.000000,,2013-01-25 03:41:00,
2013-01-24 18:52:00,35.0,21.0,-100.00,SE,125,7.0,20.0,56,0.00,,,0.00,0.000000,,2013-01-25 03:52:00,
2013-01-24 19:22:00,34.0,19.0,-100.00,SSE,160,8.0,18.0,53,0.00,,,0.00,0.000000,,2013-01-25 04:22:00,
2013-01-24 19:32:00,34.0,19.0,-100.00,SSE,160,8.0,18.0,53,0.00,,,0.00,0.000000,,2013-01-25 04:32:00,
2013-01-24 19:41:00,34.0,19.0,-100.00,SSE,160,8.0,18.0,53,0.00,,,0.00,0.000000,,2013-01-25 04:41:00,
2013-01-24 19:51:00,34.0,19.0,-100.00,SSE,160,8.0,18.0,53,0.00,,,0.00,0.000000,,2013-01-25 04:51:00,
2013-01-24 20:22:00,35.0,20.0,-100.00,SSE,165,8.0,16.0,53,0.00,,,0.00,0.000000,,2013-01-25 05:22:00,
2013-01-24 20:32:00,35.0,20.0,-100.00,SSE,165,8.0,16.0,53,0.00,,,0.00,0.000000,,2013-01-25 05:32:00,
2013-01-24 20:43:00,35.0,20.0,-100.00,SSE,165,8.0,16.0,53,0.00,,,0.00,0.000000,,2013-01-25 05:43:00,
2013-01-24 20:51:00,35.0,20.0,-100.00,SSE,165,8.0,16.0,53,0.00,,,0.00,0.000000,,2013-01-25 05:51:00,
2013-01-24 21:21:00,35.0,20.0,-100.00,South,170,6.0,12.0,54,0.00,,,0.00,0.000000,,2013-01-25 06:21:00,
2013-01-24 21:32:00,35.0,20.0,-100.00,South,170,6.0,12.0,54,0.00,,,0.00,0.000000,,2013-01-25 06:32:00,
2013-01-24 21:41:00,35.0,20.0,-100.00,South,170,6.0,12.0,54,0.00,,,0.00,0.000000,,2013-01-25 06:41:00,
2013-01-24 21:51:00,35.0,20.0,-100.00,South,170,6.0,12.0,54,0.00,,,0.00,0.000000,,2013-01-25 06:51:00,
2013-01-24 22:21:00,35.0,20.0,-100.00,South,179,8.0,14.0,53,0.00,,,0.00,0.000000,,2013-01-25 07:21:00,
2013-01-24 22:31:00,35.0,20.0,-100.00,South,179,8.0,14.0,53,0.00,,,0.00,0.000000,,2013-01-25 07:31:00,
2013-01-24 22:41:00,35.0,20.0,-100.00,South,179,8.0,14.0,53,0.00,,,0.00,0.000000,,2013-01-25 07:41:00,
2013-01-24 22:51:00,35.0,20.0,-100.00,South,179,8.0,14.0,53,0.00,,,0.00,0.000000,,2013-01-25 07:51:00,
2013-01-24 23:21:00,35.0,20.0,-100.00,SSE,159,8.0,13.0,55,0.00,,,0.00,0.000000,,2013-01-25 08:21:00,
2013-01-24 23:32:00,35.0,20.0,-100.00,SSE,159,8.0,13.0,55,0.00,,,0.00,0.000000,,2013-01-25 08:32:00,
2013-01-24 23:41:00,35.0,20.0,-100.00,SSE,159,8.0,13.0,55,0.00,,,0.00,0.000000,,2013-01-25 08:41:00,
2013-01-24 23:52:00,35.0,20.0,-100.00,SSE,159,8.0,13.0,55,0.00,,,0.00,0.000000,,2013-01-25 08:52:00,